createdAt,value
2022-10-12T00:01:21.069Z,101402.26
2022-10-12T00:03:50.683Z,101405.50
2022-10-12T00:06:22.337Z,101407.30
2022-10-12T00:08:54.061Z,101404.33
2022-10-12T00:11:25.924Z,101406.08
2022-10-12T00:13:55.634Z,101407.83
2022-10-12T00:16:26.259Z,101405.02
2022-10-12T00:18:56.777Z,101403.94
2022-10-12T00:21:27.503Z,101408.52
2022-10-12T00:23:59.263Z,101403.77
2022-10-12T00:26:29.466Z,101403.59
2022-10-12T00:29:00.892Z,101404.85
2022-10-12T00:31:31.818Z,101402.41
2022-10-12T00:34:03.005Z,101401.38
2022-10-12T00:36:35.170Z,101401.38
2022-10-12T00:39:07.506Z,101400.67
2022-10-12T00:41:39.589Z,101399.97
2022-10-12T00:44:40.041Z,101400.83
2022-10-12T00:47:18.196Z,101396.93
2022-10-12T00:49:51.482Z,101396.95
2022-10-12T00:52:25.094Z,101399.00
2022-10-12T00:54:55.878Z,101399.25
2022-10-12T00:57:25.456Z,101399.98
2022-10-12T00:59:58.815Z,101395.52
2022-10-12T01:02:30.374Z,101399.52
2022-10-12T01:05:00.805Z,101401.41
2022-10-12T01:07:30.355Z,101400.55
2022-10-12T01:09:59.697Z,101400.39
2022-10-12T01:12:29.399Z,101399.35
2022-10-12T01:14:59.287Z,101399.23
2022-10-12T01:17:36.855Z,101398.75
2022-10-12T01:20:36.524Z,101398.25
2022-10-12T01:23:29.017Z,101397.27
2022-10-12T01:26:12.706Z,101400.62
2022-10-12T01:28:54.516Z,101400.13
2022-10-12T01:31:32.780Z,101404.18
2022-10-12T01:34:04.242Z,101399.89
2022-10-12T01:36:39.304Z,101403.40
2022-10-12T01:39:15.571Z,101407.06
2022-10-12T01:41:47.624Z,101406.36
2022-10-12T01:44:22.583Z,101411.55
2022-10-12T01:46:53.290Z,101412.67
2022-10-12T01:49:26.221Z,101418.41
2022-10-12T01:52:07.462Z,101419.88
2022-10-12T01:54:48.765Z,101422.91
2022-10-12T01:57:27.688Z,101423.79
2022-10-12T02:00:04.202Z,101425.36
2022-10-12T02:02:41.508Z,101428.20
2022-10-12T02:05:20.773Z,101431.59
2022-10-12T02:07:54.174Z,101432.10
2022-10-12T02:10:28.903Z,101432.64
2022-10-12T02:13:01.559Z,101435.29
2022-10-12T02:15:32.436Z,101434.25
2022-10-12T02:18:04.513Z,101437.63
2022-10-12T02:20:34.696Z,101435.75
2022-10-12T02:23:03.871Z,101429.60
2022-10-12T02:25:35.167Z,101431.02
2022-10-12T02:28:09.236Z,101434.59
2022-10-12T02:30:45.006Z,101430.56
2022-10-12T02:33:20.105Z,101427.04
2022-10-12T02:36:02.342Z,101427.20
2022-10-12T02:38:38.025Z,101429.16
2022-10-12T02:41:11.942Z,101430.55
2022-10-12T02:43:47.047Z,101431.45
2022-10-12T02:46:18.862Z,101435.86
2022-10-12T02:48:49.960Z,101431.64
2022-10-12T02:51:21.814Z,101431.10
2022-10-12T02:53:52.919Z,101434.45
2022-10-12T02:56:22.432Z,101432.85
2022-10-12T02:58:51.379Z,101432.66
2022-10-12T03:01:20.808Z,101430.91
2022-10-12T03:03:50.202Z,101431.08
2022-10-12T03:06:20.134Z,101436.22
2022-10-12T03:08:49.338Z,101436.95
2022-10-12T03:11:18.287Z,101440.98
2022-10-12T03:13:47.367Z,101442.41
2022-10-12T03:16:16.547Z,101443.21
2022-10-12T03:18:45.676Z,101445.39
2022-10-12T03:21:14.884Z,101449.45
2022-10-12T03:23:44.094Z,101450.09
2022-10-12T03:26:13.089Z,101450.52
2022-10-12T03:28:42.097Z,101450.80
2022-10-12T03:31:11.260Z,101451.05
2022-10-12T03:33:40.546Z,101449.75
2022-10-12T03:36:10.758Z,101455.17
2022-10-12T03:38:39.671Z,101447.60
2022-10-12T03:41:08.590Z,101448.98
2022-10-12T03:43:37.585Z,101452.17
2022-10-12T03:46:25.475Z,101451.27
2022-10-12T03:48:54.486Z,101450.87
2022-10-12T03:51:23.378Z,101453.90
2022-10-12T03:53:52.427Z,101455.77
2022-10-12T03:56:21.511Z,101458.46
2022-10-12T03:58:50.355Z,101460.61
2022-10-12T04:01:19.559Z,101464.02
2022-10-12T04:03:49.073Z,101462.83
2022-10-12T04:06:18.687Z,101465.61
2022-10-12T04:08:50.841Z,101464.14
2022-10-12T04:11:20.930Z,101464.44
2022-10-12T04:13:51.659Z,101461.68
2022-10-12T04:16:21.409Z,101465.73
2022-10-12T04:18:50.925Z,101464.88
2022-10-12T04:21:23.462Z,101469.37
2022-10-12T04:23:53.056Z,101472.23
2022-10-12T04:26:22.316Z,101472.45
2022-10-12T04:28:51.736Z,101473.33
2022-10-12T04:31:21.177Z,101476.15
2022-10-12T04:33:56.025Z,101472.84
2022-10-12T04:36:25.558Z,101478.54
2022-10-12T04:39:00.657Z,101479.61
2022-10-12T04:41:30.671Z,101479.06
2022-10-12T04:43:59.827Z,101479.41
2022-10-12T04:46:28.578Z,101483.52
2022-10-12T04:48:57.527Z,101484.02
2022-10-12T04:51:27.227Z,101489.50
2022-10-12T04:53:56.098Z,101488.99
2022-10-12T04:56:26.438Z,101487.83
2022-10-12T04:58:56.648Z,101484.91
2022-10-12T05:01:25.598Z,101492.74
2022-10-12T05:03:54.853Z,101494.16
2022-10-12T05:06:23.833Z,101494.54
2022-10-12T05:08:53.155Z,101500.23
2022-10-12T05:11:22.683Z,101501.37
2022-10-12T05:13:53.408Z,101502.31
2022-10-12T05:16:23.349Z,101505.42
2022-10-12T05:18:52.333Z,101505.38
2022-10-12T05:21:21.111Z,101504.75
2022-10-12T05:23:52.229Z,101509.44
2022-10-12T05:26:21.289Z,101510.75
2022-10-12T05:28:50.149Z,101515.52
2022-10-12T05:31:19.416Z,101516.04
2022-10-12T05:33:48.530Z,101522.61
2022-10-12T05:36:17.613Z,101520.34
2022-10-12T05:38:48.770Z,101529.23
2022-10-12T05:41:18.299Z,101529.50
2022-10-12T05:43:47.959Z,101534.29
2022-10-12T05:46:18.763Z,101538.65
2022-10-12T05:48:51.545Z,101543.52
2022-10-12T05:51:25.282Z,101546.80
2022-10-12T05:54:13.115Z,101546.55
2022-10-12T05:57:06.297Z,101549.53
2022-10-12T05:59:38.569Z,101553.77
2022-10-12T06:02:08.144Z,101553.56
2022-10-12T06:04:38.909Z,101555.52
2022-10-12T06:07:07.967Z,101563.66
2022-10-12T06:09:38.444Z,101562.77
2022-10-12T06:12:08.081Z,101567.23
2022-10-12T06:14:37.413Z,101567.98
2022-10-12T06:17:07.286Z,101573.07
2022-10-12T06:19:38.720Z,101575.85
2022-10-12T06:22:10.219Z,101576.06
2022-10-12T06:24:39.624Z,101578.16
2022-10-12T06:27:09.579Z,101580.48
2022-10-12T06:29:38.855Z,101582.48
2022-10-12T06:32:08.214Z,101589.80
2022-10-12T06:34:37.596Z,101594.63
2022-10-12T06:37:06.906Z,101593.36
2022-10-12T06:39:36.238Z,101594.72
2022-10-12T06:42:07.090Z,101596.50
2022-10-12T06:44:36.638Z,101597.44
2022-10-12T06:47:08.275Z,101596.67
2022-10-12T06:49:37.584Z,101598.70
2022-10-12T06:52:06.943Z,101595.92
2022-10-12T06:54:36.664Z,101596.00
2022-10-12T06:57:07.694Z,101601.14
2022-10-12T06:59:37.029Z,101600.70
2022-10-12T07:02:06.151Z,101599.11
2022-10-12T07:04:35.488Z,101601.66
2022-10-12T07:07:09.938Z,101598.73
2022-10-12T07:09:39.413Z,101603.30
2022-10-12T07:12:09.068Z,101601.09
2022-10-12T07:14:39.347Z,101599.27
2022-10-12T07:17:09.268Z,101597.73
2022-10-12T07:19:38.663Z,101600.95
2022-10-12T07:22:17.111Z,101601.40
2022-10-12T07:24:45.365Z,101603.39
2022-10-12T07:27:13.766Z,101604.20
2022-10-12T07:29:43.395Z,101602.08
2022-10-12T07:32:13.481Z,101605.72
2022-10-12T07:34:44.208Z,101607.75
2022-10-12T07:37:14.905Z,101611.25
2022-10-12T07:39:44.165Z,101612.54
2022-10-12T07:42:16.857Z,101612.61
2022-10-12T07:44:48.959Z,101612.55
2022-10-12T07:47:18.899Z,101609.30
2022-10-12T07:49:50.605Z,101607.21
2022-10-12T07:52:20.137Z,101608.84
2022-10-12T07:54:49.084Z,101603.67
2022-10-12T07:57:18.464Z,101601.45
2022-10-12T07:59:47.539Z,101600.20
2022-10-12T08:02:19.725Z,101602.37
2022-10-12T08:04:52.860Z,101601.91
2022-10-12T08:07:22.076Z,101600.74
2022-10-12T08:09:51.163Z,101600.62
2022-10-12T08:12:20.843Z,101604.21
2022-10-12T08:14:50.673Z,101604.29
2022-10-12T08:17:19.626Z,101604.34
2022-10-12T08:19:48.595Z,101612.95
2022-10-12T08:22:17.356Z,101608.95
2022-10-12T08:24:46.338Z,101611.16
2022-10-12T08:27:15.729Z,101613.73
2022-10-12T08:29:44.781Z,101614.67
2022-10-12T08:32:14.008Z,101617.04
2022-10-12T08:34:43.254Z,101614.43
2022-10-12T08:37:18.487Z,101618.11
2022-10-12T08:39:48.834Z,101613.41
2022-10-12T08:42:36.247Z,101616.91
2022-10-12T08:45:30.315Z,101616.19
2022-10-12T08:48:09.063Z,101616.54
2022-10-12T08:50:52.103Z,101614.37
2022-10-12T08:53:25.711Z,101621.42
2022-10-12T08:55:56.510Z,101622.80
2022-10-12T08:58:30.609Z,101623.11
2022-10-12T09:01:15.599Z,101621.30
2022-10-12T09:03:59.406Z,101620.16
2022-10-12T09:06:33.837Z,101620.30
2022-10-12T09:09:18.389Z,101621.65
2022-10-12T09:12:11.907Z,101623.55
2022-10-12T09:14:42.216Z,101620.27
2022-10-12T09:17:25.292Z,101619.44
2022-10-12T09:20:02.199Z,101614.20
2022-10-12T09:22:34.461Z,101612.51
2022-10-12T09:25:06.494Z,101610.82
2022-10-12T09:27:44.359Z,101605.67
2022-10-12T09:30:17.060Z,101607.34
2022-10-12T09:33:15.609Z,101608.13
2022-10-12T09:35:46.503Z,101610.04
2022-10-12T09:38:16.063Z,101610.92
2022-10-12T09:40:47.364Z,101608.79
2022-10-12T09:43:17.462Z,101610.74
2022-10-12T09:45:48.040Z,101611.47
2022-10-12T09:48:19.888Z,101617.45
2022-10-12T09:50:54.853Z,101616.61
2022-10-12T09:53:30.700Z,101615.06
2022-10-12T09:56:04.410Z,101617.59
2022-10-12T09:58:41.337Z,101615.65
2022-10-12T10:01:23.155Z,101614.21
2022-10-12T10:04:09.550Z,101611.01
2022-10-12T10:06:40.868Z,101610.66
2022-10-12T10:09:29.315Z,101609.41
2022-10-12T10:12:11.232Z,101610.63
2022-10-12T10:14:43.895Z,101610.07
2022-10-12T10:17:17.668Z,101608.26
2022-10-12T10:19:51.590Z,101605.98
2022-10-12T10:22:21.873Z,101606.59
2022-10-12T10:25:00.165Z,101604.27
2022-10-12T10:27:36.606Z,101599.60
2022-10-12T10:30:40.794Z,101596.90
2022-10-12T10:33:22.737Z,101595.45
2022-10-12T10:36:15.542Z,101589.95
2022-10-12T10:38:56.151Z,101588.88
2022-10-12T10:41:31.383Z,101590.10
2022-10-12T10:44:00.649Z,101585.25
2022-10-12T10:46:32.744Z,101581.98
2022-10-12T10:49:06.823Z,101576.55
2022-10-12T10:51:49.383Z,101572.68
2022-10-12T10:54:29.291Z,101570.45
2022-10-12T10:57:01.914Z,101566.20
2022-10-12T10:59:39.803Z,101565.10
2022-10-12T11:02:19.802Z,101560.46
2022-10-12T11:04:54.429Z,101557.69
2022-10-12T11:07:37.227Z,101555.31
2022-10-12T11:10:17.259Z,101552.38
2022-10-12T11:12:51.375Z,101547.54
2022-10-12T11:15:25.878Z,101544.89
2022-10-12T11:18:01.143Z,101543.91
2022-10-12T11:20:43.698Z,101542.89
2022-10-12T11:23:23.205Z,101539.53
2022-10-12T11:26:01.849Z,101535.16
2022-10-12T11:28:33.947Z,101539.14
2022-10-12T11:31:04.865Z,101536.73
2022-10-12T11:33:38.779Z,101535.20
2022-10-12T11:36:11.955Z,101530.56
2022-10-12T11:38:45.419Z,101528.20
2022-10-12T11:44:15.741Z,101525.87
2022-10-12T11:46:49.122Z,101524.38
2022-10-12T11:49:26.345Z,101523.23
2022-10-12T11:51:58.345Z,101517.61
2022-10-12T11:54:32.703Z,101515.38
2022-10-12T11:57:05.982Z,101511.70
2022-10-12T11:59:44.745Z,101510.36
2022-10-12T12:02:20.970Z,101513.98
2022-10-12T12:04:50.938Z,101510.36
2022-10-12T12:07:43.623Z,101514.87
2022-10-12T12:10:53.613Z,101514.93
2022-10-12T12:13:26.386Z,101513.98
2022-10-12T12:16:32.841Z,101511.23
2022-10-12T12:19:17.963Z,101508.48
2022-10-12T12:22:18.323Z,101508.25
2022-10-12T12:25:18.365Z,101509.23
2022-10-12T12:27:50.626Z,101507.46
2022-10-12T12:30:31.744Z,101507.48
2022-10-12T12:33:03.122Z,101506.25
2022-10-12T12:35:37.660Z,101508.23
2022-10-12T12:38:21.336Z,101504.23
2022-10-12T12:41:11.985Z,101506.20
2022-10-12T12:43:54.469Z,101507.79
2022-10-12T12:46:25.616Z,101506.02
2022-10-12T12:49:05.240Z,101506.58
2022-10-12T12:51:38.777Z,101502.34
2022-10-12T12:54:15.981Z,101503.20
2022-10-12T12:57:06.732Z,101498.36
2022-10-12T13:00:01.938Z,101500.71
2022-10-12T13:03:21.797Z,101494.08
2022-10-12T13:06:24.033Z,101499.63
2022-10-12T13:09:28.142Z,101496.45
2022-10-12T13:12:10.817Z,101496.36
2022-10-12T13:14:54.236Z,101493.41
2022-10-12T13:17:51.216Z,101498.77
2022-10-12T13:20:22.462Z,101496.80
2022-10-12T13:22:58.705Z,101495.64
2022-10-12T13:25:33.037Z,101495.39
2022-10-12T13:28:06.237Z,101490.01
2022-10-12T13:30:41.361Z,101495.81
2022-10-12T13:33:20.741Z,101496.29
2022-10-12T13:35:56.352Z,101500.48
2022-10-12T13:38:27.578Z,101497.61
2022-10-12T13:41:02.052Z,101497.66
2022-10-12T13:43:36.640Z,101498.68
2022-10-12T13:46:06.370Z,101496.58
2022-10-12T13:51:27.980Z,101494.11
2022-10-12T13:53:57.793Z,101495.48
2022-10-12T13:56:28.837Z,101496.09
2022-10-12T13:59:00.045Z,101494.94
2022-10-12T14:01:29.198Z,101494.55
2022-10-12T14:04:05.066Z,101491.27
2022-10-12T14:06:37.748Z,101491.56
2022-10-12T14:09:12.717Z,101488.15
2022-10-12T14:11:43.134Z,101488.85
2022-10-12T14:14:20.047Z,101492.91
2022-10-12T14:16:50.883Z,101492.51
2022-10-12T14:19:33.942Z,101494.84
2022-10-12T14:22:03.851Z,101495.05
2022-10-12T14:24:34.921Z,101489.16
2022-10-12T14:27:06.403Z,101490.31
2022-10-12T14:29:41.195Z,101494.48
2022-10-12T14:32:37.460Z,101491.39
2022-10-12T14:35:13.364Z,101493.91
2022-10-12T14:37:42.308Z,101491.35
2022-10-12T14:40:35.073Z,101491.02
2022-10-12T14:43:19.469Z,101494.67
2022-10-12T14:45:49.029Z,101494.89
2022-10-12T14:48:22.589Z,101499.26
2022-10-12T14:50:58.193Z,101501.40
2022-10-12T14:53:29.020Z,101504.47
2022-10-12T14:55:57.979Z,101503.59
2022-10-12T14:58:26.896Z,101501.46
2022-10-12T15:00:57.000Z,101503.50
2022-10-12T15:03:25.941Z,101506.12
2022-10-12T15:05:54.760Z,101506.66
2022-10-12T15:08:24.575Z,101508.38
2022-10-12T15:10:53.390Z,101506.84
2022-10-12T15:13:22.349Z,101501.73
2022-10-12T15:15:54.369Z,101499.48
2022-10-12T15:18:23.480Z,101504.24
2022-10-12T15:20:53.071Z,101506.24
2022-10-12T15:23:21.871Z,101506.08
2022-10-12T15:25:52.783Z,101503.98
2022-10-12T15:28:22.605Z,101501.06
2022-10-12T15:31:16.014Z,101505.05
2022-10-12T15:33:41.654Z,101513.36
2022-10-12T15:36:11.056Z,101516.23
2022-10-12T15:38:39.998Z,101514.90
2022-10-12T15:41:17.160Z,101513.23
2022-10-12T15:43:46.124Z,101514.94
2022-10-12T15:46:14.930Z,101522.46
2022-10-12T15:48:43.926Z,101520.98
2022-10-12T15:51:18.864Z,101521.29
2022-10-12T15:53:48.655Z,101521.45
2022-10-12T15:56:18.895Z,101523.54
2022-10-12T15:58:48.017Z,101522.60
2022-10-12T16:01:18.697Z,101526.65
2022-10-12T16:03:48.506Z,101528.23
2022-10-12T16:06:17.635Z,101528.88
2022-10-12T16:08:46.724Z,101529.23
2022-10-12T16:11:16.768Z,101534.59
2022-10-12T16:13:53.845Z,101534.80
2022-10-12T16:16:25.448Z,101532.79
2022-10-12T16:18:56.722Z,101535.54
2022-10-12T16:21:25.931Z,101535.98
2022-10-12T16:23:54.712Z,101538.50
2022-10-12T16:26:23.593Z,101540.05
2022-10-12T16:28:52.296Z,101542.30
2022-10-12T16:31:21.432Z,101545.29
2022-10-12T16:33:50.288Z,101549.12
2022-10-12T16:36:19.050Z,101544.19
2022-10-12T16:38:48.079Z,101544.24
2022-10-12T16:41:18.262Z,101541.09
2022-10-12T16:43:47.144Z,101540.45
2022-10-12T16:46:16.416Z,101542.67
2022-10-12T16:48:45.227Z,101543.51
2022-10-12T16:51:14.379Z,101543.45
2022-10-12T16:53:43.924Z,101541.41
2022-10-12T16:56:12.880Z,101540.95
2022-10-12T16:58:41.602Z,101538.89
2022-10-12T17:01:12.310Z,101539.15
2022-10-12T17:03:41.542Z,101535.87
2022-10-12T17:06:10.565Z,101541.27
2022-10-12T17:08:39.564Z,101537.63
2022-10-12T17:11:10.421Z,101539.81
2022-10-12T17:13:45.199Z,101543.08
2022-10-12T17:16:36.663Z,101548.30
2022-10-12T17:19:04.809Z,101547.68
2022-10-12T17:21:35.746Z,101548.84
2022-10-12T17:24:05.741Z,101545.95
2022-10-12T17:26:38.654Z,101546.50
2022-10-12T17:29:12.927Z,101546.54
2022-10-12T17:31:43.044Z,101550.52
2022-10-12T17:34:19.265Z,101553.29
2022-10-12T17:36:49.197Z,101555.47
2022-10-12T17:39:18.142Z,101557.10
2022-10-12T17:41:47.615Z,101552.35
2022-10-12T17:44:16.780Z,101554.86
2022-10-12T17:46:46.631Z,101558.79
2022-10-12T17:49:19.810Z,101554.77
2022-10-12T17:51:52.930Z,101559.05
2022-10-12T17:54:24.526Z,101564.59
2022-10-12T17:56:53.819Z,101562.02
2022-10-12T17:59:23.500Z,101563.83
2022-10-12T18:01:52.900Z,101558.73
2022-10-12T18:04:22.377Z,101560.34
2022-10-12T18:06:51.237Z,101561.81
2022-10-12T18:09:20.184Z,101563.29
2022-10-12T18:11:49.172Z,101563.67
2022-10-12T18:14:18.447Z,101561.23
2022-10-12T18:16:47.397Z,101564.42
2022-10-12T18:19:16.205Z,101566.08
2022-10-12T18:21:44.987Z,101563.34
2022-10-12T18:24:16.991Z,101568.70
2022-10-12T18:26:47.537Z,101568.20
2022-10-12T18:29:16.494Z,101566.12
2022-10-12T18:31:45.430Z,101571.58
2022-10-12T18:34:14.266Z,101567.85
2022-10-12T18:36:43.217Z,101567.13
2022-10-12T18:39:12.348Z,101568.23
2022-10-12T18:41:41.411Z,101567.63
2022-10-12T18:44:12.049Z,101566.80
2022-10-12T18:46:41.099Z,101566.28
2022-10-12T18:49:10.851Z,101568.23
2022-10-12T18:51:42.015Z,101571.08
2022-10-12T18:54:12.611Z,101568.80
2022-10-12T18:56:42.419Z,101569.55
2022-10-12T18:59:16.849Z,101569.38
2022-10-12T19:01:47.177Z,101570.12
2022-10-12T19:04:16.117Z,101570.60
2022-10-12T19:06:44.940Z,101574.60
2022-10-12T19:09:14.572Z,101576.80
2022-10-12T19:11:43.546Z,101578.73
2022-10-12T19:14:14.856Z,101581.92
2022-10-12T19:16:44.530Z,101580.03
2022-10-12T19:19:20.761Z,101579.99
2022-10-12T19:21:51.557Z,101574.58
2022-10-12T19:24:21.261Z,101573.69
2022-10-12T19:26:50.898Z,101570.30
2022-10-12T19:29:19.703Z,101570.85
2022-10-12T19:31:49.885Z,101569.91
2022-10-12T19:34:20.640Z,101566.58
2022-10-12T19:36:50.123Z,101564.65
2022-10-12T19:39:21.544Z,101567.23
2022-10-12T19:41:51.706Z,101563.75
2022-10-12T19:44:21.127Z,101564.65
2022-10-12T19:46:52.951Z,101565.36
2022-10-12T19:49:22.234Z,101570.70
2022-10-12T19:51:51.105Z,101569.85
2022-10-12T19:54:20.152Z,101570.90
2022-10-12T19:56:50.046Z,101572.98
2022-10-12T19:59:18.742Z,101572.80
2022-10-12T20:01:47.733Z,101577.77
2022-10-12T20:04:16.993Z,101578.19
2022-10-12T20:06:45.736Z,101576.08
2022-10-12T20:09:14.511Z,101578.57
2022-10-12T20:11:43.931Z,101582.13
2022-10-12T20:14:12.911Z,101583.39
2022-10-12T20:16:41.681Z,101577.57
2022-10-12T20:19:09.686Z,101578.30
2022-10-12T20:21:38.534Z,101575.35
2022-10-12T20:24:10.242Z,101571.66
2022-10-12T20:26:39.204Z,101572.38
2022-10-12T20:29:07.966Z,101568.15
2022-10-12T20:31:37.205Z,101571.66
2022-10-12T20:34:06.531Z,101567.99
2022-10-12T20:36:35.402Z,101566.48
2022-10-12T20:39:04.654Z,101563.69
2022-10-12T20:41:33.963Z,101567.21
2022-10-12T20:44:03.204Z,101566.34
2022-10-12T20:46:32.163Z,101570.77
2022-10-12T20:49:03.055Z,101574.88
2022-10-12T20:51:35.119Z,101577.89
2022-10-12T20:54:06.009Z,101577.55
2022-10-12T20:56:35.281Z,101577.41
2022-10-12T20:59:04.132Z,101576.36
2022-10-12T21:01:33.304Z,101580.11
2022-10-12T21:04:02.423Z,101579.95
2022-10-12T21:06:31.208Z,101580.87
2022-10-12T21:09:00.562Z,101581.71
2022-10-12T21:11:30.793Z,101582.04
2022-10-12T21:13:59.661Z,101584.82
2022-10-12T21:16:28.662Z,101587.27
2022-10-12T21:18:57.623Z,101587.63
2022-10-12T21:21:26.500Z,101584.44
2022-10-12T21:23:57.887Z,101590.43
2022-10-12T21:26:29.713Z,101590.29
2022-10-12T21:29:00.300Z,101589.95
2022-10-12T21:31:32.637Z,101586.45
2022-10-12T21:34:04.399Z,101588.02
2022-10-12T21:36:36.114Z,101585.21
2022-10-12T21:39:11.858Z,101587.70
2022-10-12T21:41:41.638Z,101585.65
2022-10-12T21:44:11.972Z,101585.33
2022-10-12T21:46:41.060Z,101586.73
2022-10-12T21:49:11.886Z,101587.61
2022-10-12T21:51:41.194Z,101588.14
2022-10-12T21:54:10.200Z,101591.81
2022-10-12T21:56:39.210Z,101590.06
2022-10-12T21:59:08.438Z,101587.77
2022-10-12T22:01:41.932Z,101586.55
2022-10-12T22:04:14.556Z,101587.96
2022-10-12T22:06:43.659Z,101589.90
2022-10-12T22:09:16.366Z,101590.08
2022-10-12T22:11:46.350Z,101591.83
2022-10-12T22:14:17.545Z,101589.00
2022-10-12T22:16:47.273Z,101587.23
2022-10-12T22:19:18.568Z,101583.89
2022-10-12T22:21:49.257Z,101585.63
2022-10-12T22:24:19.274Z,101586.34
2022-10-12T22:26:48.225Z,101588.46
2022-10-12T22:29:19.165Z,101586.17
2022-10-12T22:31:48.081Z,101590.91
2022-10-12T22:34:17.211Z,101592.84
2022-10-12T22:36:46.079Z,101592.34
2022-10-12T22:39:15.432Z,101593.94
2022-10-12T22:41:44.529Z,101593.92
2022-10-12T22:44:13.223Z,101596.75
2022-10-12T22:46:42.268Z,101596.75
2022-10-12T22:49:10.256Z,101596.96
2022-10-12T22:51:39.022Z,101595.91
2022-10-12T22:54:09.066Z,101591.36
2022-10-12T22:56:38.082Z,101592.23
2022-10-12T22:59:07.119Z,101591.37
2022-10-12T23:01:36.917Z,101592.22
2022-10-12T23:04:06.609Z,101586.27
2022-10-12T23:06:37.502Z,101589.98
2022-10-12T23:09:06.491Z,101593.16
2022-10-12T23:11:35.267Z,101590.00
2022-10-12T23:14:02.906Z,101592.99
2022-10-12T23:16:33.282Z,101591.92
2022-10-12T23:19:04.810Z,101594.02
2022-10-12T23:21:35.341Z,101594.90
2022-10-12T23:24:05.803Z,101591.73
2022-10-12T23:26:34.994Z,101589.45
2022-10-12T23:29:04.506Z,101588.59
2022-10-12T23:31:35.313Z,101587.23
2022-10-12T23:34:05.955Z,101591.67
2022-10-12T23:36:35.245Z,101597.65
2022-10-12T23:39:05.716Z,101596.59
2022-10-12T23:41:34.450Z,101592.73
2022-10-12T23:44:03.618Z,101593.61
2022-10-12T23:46:32.866Z,101594.51
2022-10-12T23:49:01.535Z,101599.77
2022-10-12T23:51:30.974Z,101596.09
2022-10-12T23:53:59.862Z,101595.04
2022-10-12T23:56:28.753Z,101591.70
2022-10-12T23:58:58.037Z,101585.56
